createdAt,value
2023-04-17T00:01:09.312Z,62.81
2023-04-17T00:03:36.060Z,62.29
2023-04-17T00:06:03.498Z,62.87
2023-04-17T00:08:30.067Z,62.65
2023-04-17T00:11:06.512Z,62.96
2023-04-17T00:13:34.129Z,62.43
2023-04-17T00:16:00.796Z,62.53
2023-04-17T00:18:27.372Z,62.54
2023-04-17T00:20:54.494Z,62.32
2023-04-17T00:23:21.229Z,63.23
2023-04-17T00:25:47.775Z,62.99
2023-04-17T00:28:14.317Z,63.09
2023-04-17T00:30:40.826Z,62.43
2023-04-17T00:33:07.397Z,62.17
2023-04-17T00:35:34.355Z,62.07
2023-04-17T00:38:01.013Z,62.55
2023-04-17T00:40:27.647Z,62.33
2023-04-17T00:43:00.046Z,62.51
2023-04-17T00:45:26.605Z,62.22
2023-04-17T00:47:53.498Z,61.82
2023-04-17T00:50:20.115Z,62.03
2023-04-17T00:52:46.704Z,62.29
2023-04-17T00:55:14.286Z,61.80
2023-04-17T00:57:42.585Z,62.22
2023-04-17T01:00:10.328Z,61.53
2023-04-17T01:02:37.794Z,61.55
2023-04-17T01:05:04.923Z,61.57
2023-04-17T01:07:31.580Z,61.40
2023-04-17T01:09:59.152Z,61.29
2023-04-17T01:12:25.900Z,60.53
2023-04-17T01:14:53.771Z,61.21
2023-04-17T01:17:21.590Z,60.29
2023-04-17T01:19:49.328Z,60.30
2023-04-17T01:22:21.861Z,59.87
2023-04-17T01:24:49.104Z,59.93
2023-04-17T01:27:15.575Z,59.98
2023-04-17T01:29:43.272Z,60.18
2023-04-17T01:32:09.961Z,59.62
2023-04-17T01:34:37.538Z,59.24
2023-04-17T01:37:04.485Z,59.55
2023-04-17T01:39:31.336Z,59.19
2023-04-17T01:41:58.252Z,58.93
2023-04-17T01:44:25.082Z,58.87
2023-04-17T01:46:51.814Z,58.97
2023-04-17T01:49:18.360Z,59.43
2023-04-17T01:51:44.866Z,59.23
2023-04-17T01:54:11.372Z,58.45
2023-04-17T01:56:37.995Z,58.89
2023-04-17T01:59:04.484Z,59.59
2023-04-17T02:01:31.183Z,59.64
2023-04-17T02:03:57.897Z,58.88
2023-04-17T02:06:24.896Z,58.87
2023-04-17T02:08:51.407Z,58.52
2023-04-17T02:11:18.394Z,58.17
2023-04-17T02:13:44.934Z,57.77
2023-04-17T02:16:12.503Z,57.58
2023-04-17T02:18:40.745Z,57.71
2023-04-17T02:21:07.279Z,57.75
2023-04-17T02:23:34.001Z,57.51
2023-04-17T02:26:00.849Z,57.24
2023-04-17T02:28:27.483Z,57.47
2023-04-17T02:30:54.050Z,57.15
2023-04-17T02:33:21.418Z,57.34
2023-04-17T02:35:48.040Z,57.27
2023-04-17T02:38:14.591Z,57.55
2023-04-17T02:40:41.350Z,57.58
2023-04-17T02:43:07.887Z,57.33
2023-04-17T02:45:34.439Z,57.30
2023-04-17T02:48:02.149Z,57.25
2023-04-17T02:50:28.748Z,56.99
2023-04-17T02:52:55.288Z,56.98
2023-04-17T02:55:22.325Z,56.96
2023-04-17T02:57:48.953Z,56.85
2023-04-17T03:00:15.864Z,56.72
2023-04-17T03:02:42.714Z,56.71
2023-04-17T03:05:11.559Z,56.74
2023-04-17T03:07:38.204Z,57.08
2023-04-17T03:10:06.270Z,56.53
2023-04-17T03:12:32.753Z,57.04
2023-04-17T03:14:59.242Z,57.42
2023-04-17T03:17:25.771Z,57.26
2023-04-17T03:19:52.283Z,57.20
2023-04-17T03:22:18.894Z,56.81
2023-04-17T03:24:45.529Z,57.06
2023-04-17T03:27:12.006Z,57.25
2023-04-17T03:29:38.619Z,56.69
2023-04-17T03:32:05.483Z,57.35
2023-04-17T03:34:32.470Z,56.73
2023-04-17T03:36:59.239Z,56.79
2023-04-17T03:39:25.940Z,56.77
2023-04-17T03:41:52.558Z,56.69
2023-04-17T03:44:19.176Z,57.44
2023-04-17T03:46:45.798Z,56.96
2023-04-17T03:49:12.657Z,56.96
2023-04-17T03:51:39.404Z,56.84
2023-04-17T03:54:05.993Z,56.85
2023-04-17T03:56:32.492Z,57.38
2023-04-17T03:58:59.195Z,56.97
2023-04-17T04:01:28.196Z,56.90
2023-04-17T04:03:55.392Z,56.75
2023-04-17T04:06:22.423Z,56.86
2023-04-17T04:08:49.469Z,56.81
2023-04-17T04:11:16.426Z,57.08
2023-04-17T04:13:42.898Z,57.29
2023-04-17T04:16:09.517Z,57.12
2023-04-17T04:18:36.661Z,56.96
2023-04-17T04:21:03.300Z,57.33
2023-04-17T04:23:30.624Z,57.18
2023-04-17T04:25:57.955Z,57.29
2023-04-17T04:28:24.537Z,57.42
2023-04-17T04:30:53.028Z,57.38
2023-04-17T04:33:20.594Z,57.36
2023-04-17T04:35:48.548Z,57.21
2023-04-17T04:38:15.442Z,57.83
2023-04-17T04:40:44.006Z,57.52
2023-04-17T04:43:10.765Z,57.79
2023-04-17T04:45:37.348Z,57.88
2023-04-17T04:48:03.878Z,57.58
2023-04-17T04:50:30.985Z,57.54
2023-04-17T04:52:57.483Z,57.22
2023-04-17T04:55:24.521Z,56.94
2023-04-17T04:57:54.186Z,57.07
2023-04-17T05:00:20.902Z,57.00
2023-04-17T05:02:47.657Z,56.87
2023-04-17T05:05:14.242Z,56.89
2023-04-17T05:07:40.924Z,57.46
2023-04-17T05:10:08.045Z,57.01
2023-04-17T05:12:35.211Z,57.76
2023-04-17T05:15:02.128Z,57.07
2023-04-17T05:17:28.631Z,56.90
2023-04-17T05:19:55.591Z,56.98
2023-04-17T05:22:22.216Z,56.96
2023-04-17T05:24:49.077Z,57.65
2023-04-17T05:27:16.593Z,57.05
2023-04-17T05:29:43.316Z,56.63
2023-04-17T05:32:09.935Z,56.57
2023-04-17T05:34:36.947Z,56.74
2023-04-17T05:37:03.609Z,56.47
2023-04-17T05:39:30.297Z,57.08
2023-04-17T05:41:57.114Z,56.98
2023-04-17T05:44:23.652Z,57.54
2023-04-17T05:46:50.352Z,56.93
2023-04-17T05:49:17.027Z,56.84
2023-04-17T05:51:43.604Z,56.53
2023-04-17T05:54:10.188Z,56.52
2023-04-17T05:56:36.681Z,57.02
2023-04-17T05:59:03.199Z,57.55
2023-04-17T06:01:29.715Z,56.99
2023-04-17T06:03:57.165Z,56.96
2023-04-17T06:06:24.003Z,56.76
2023-04-17T06:08:52.400Z,57.50
2023-04-17T06:11:18.975Z,56.36
2023-04-17T06:13:45.557Z,56.32
2023-04-17T06:16:12.681Z,55.77
2023-04-17T06:18:40.089Z,56.16
2023-04-17T06:21:07.462Z,56.16
2023-04-17T06:23:33.941Z,56.79
2023-04-17T06:26:00.447Z,56.32
2023-04-17T06:28:26.947Z,55.17
2023-04-17T06:30:53.422Z,55.39
2023-04-17T06:33:20.298Z,55.35
2023-04-17T06:35:46.869Z,56.10
2023-04-17T06:38:13.688Z,54.57
2023-04-17T06:40:40.205Z,54.51
2023-04-17T06:43:06.771Z,54.59
2023-04-17T06:45:34.240Z,55.43
2023-04-17T06:48:00.766Z,54.04
2023-04-17T06:50:28.552Z,54.50
2023-04-17T06:52:55.052Z,54.58
2023-04-17T06:55:21.839Z,54.49
2023-04-17T06:57:48.548Z,53.83
2023-04-17T07:00:15.509Z,53.48
2023-04-17T07:02:42.457Z,53.33
2023-04-17T07:05:09.399Z,52.83
2023-04-17T07:07:36.482Z,52.29
2023-04-17T07:10:04.118Z,52.32
2023-04-17T07:12:30.803Z,51.90
2023-04-17T07:14:57.345Z,51.26
2023-04-17T07:17:23.966Z,50.79
2023-04-17T07:19:50.797Z,51.08
2023-04-17T07:22:17.446Z,50.71
2023-04-17T07:24:43.999Z,49.08
2023-04-17T07:27:11.038Z,49.20
2023-04-17T07:29:37.915Z,48.11
2023-04-17T07:32:04.926Z,47.46
2023-04-17T07:34:32.775Z,46.27
2023-04-17T07:36:59.271Z,47.07
2023-04-17T07:39:30.452Z,46.13
2023-04-17T07:41:57.317Z,46.16
2023-04-17T07:44:23.805Z,46.34
2023-04-17T07:46:50.567Z,45.93
2023-04-17T07:49:17.328Z,45.91
2023-04-17T07:51:44.508Z,45.63
2023-04-17T07:54:11.231Z,45.22
2023-04-17T07:56:37.843Z,44.71
2023-04-17T07:59:04.805Z,43.78
2023-04-17T08:01:32.057Z,43.20
2023-04-17T08:03:59.090Z,42.31
2023-04-17T08:06:26.624Z,41.49
2023-04-17T08:08:53.190Z,41.81
2023-04-17T08:11:21.267Z,40.68
2023-04-17T08:13:48.050Z,41.52
2023-04-17T08:16:14.722Z,41.13
2023-04-17T08:18:42.122Z,40.36
2023-04-17T08:21:09.117Z,40.68
2023-04-17T08:23:36.010Z,40.11
2023-04-17T08:26:02.587Z,39.16
2023-04-17T08:28:29.198Z,40.39
2023-04-17T08:30:55.937Z,38.71
2023-04-17T08:33:23.105Z,38.11
2023-04-17T08:35:49.744Z,37.48
2023-04-17T08:38:16.675Z,36.57
2023-04-17T08:40:46.789Z,36.36
2023-04-17T08:43:19.501Z,36.23
2023-04-17T08:45:55.649Z,34.34
2023-04-17T08:48:23.703Z,33.70
2023-04-17T08:50:52.378Z,31.82
2023-04-17T08:53:20.563Z,32.39
2023-04-17T08:55:48.139Z,32.71
2023-04-17T08:58:15.538Z,31.35
2023-04-17T09:00:43.992Z,29.96
2023-04-17T09:03:13.733Z,29.56
2023-04-17T09:05:43.353Z,30.24
2023-04-17T09:08:12.483Z,29.18
2023-04-17T09:10:40.976Z,28.79
2023-04-17T09:13:08.695Z,29.48
2023-04-17T09:15:36.781Z,30.91
2023-04-17T09:18:04.024Z,29.89
2023-04-17T09:20:30.599Z,30.30
2023-04-17T09:23:02.508Z,30.89
2023-04-17T09:25:29.561Z,29.96
2023-04-17T09:28:13.835Z,30.96
2023-04-17T09:30:41.604Z,30.59
2023-04-17T09:33:10.441Z,31.38
2023-04-17T09:35:40.111Z,31.94
2023-04-17T09:38:07.269Z,33.01
2023-04-17T09:40:41.570Z,32.53
2023-04-17T09:43:10.295Z,32.81
2023-04-17T09:45:41.525Z,33.10
2023-04-17T09:48:12.791Z,31.91
2023-04-17T09:50:39.896Z,32.93
2023-04-17T09:53:07.460Z,31.56
2023-04-17T09:55:35.815Z,31.84
2023-04-17T09:58:04.292Z,34.06
2023-04-17T10:00:31.186Z,32.47
2023-04-17T10:02:59.109Z,31.68
2023-04-17T10:05:28.776Z,29.28
2023-04-17T10:07:56.321Z,29.63
2023-04-17T10:10:23.996Z,29.70
2023-04-17T10:12:53.459Z,29.04
2023-04-17T10:15:21.077Z,28.33
2023-04-17T10:17:49.832Z,28.76
2023-04-17T10:20:22.766Z,28.12
2023-04-17T10:22:54.422Z,29.48
2023-04-17T10:25:25.846Z,29.57
2023-04-17T10:27:58.192Z,29.33
2023-04-17T10:30:36.405Z,29.20
2023-04-17T10:33:15.739Z,27.45
2023-04-17T10:35:42.432Z,29.69
2023-04-17T10:38:09.035Z,30.46
2023-04-17T10:40:36.583Z,29.78
2023-04-17T10:43:20.429Z,30.07
2023-04-17T10:46:09.163Z,28.23
2023-04-17T10:48:41.707Z,27.76
2023-04-17T10:51:23.724Z,25.72
2023-04-17T10:54:00.894Z,26.58
2023-04-17T10:56:38.553Z,24.00
2023-04-17T10:59:07.752Z,21.51
2023-04-17T11:01:37.542Z,22.45
2023-04-17T11:04:05.067Z,20.17
2023-04-17T11:06:33.101Z,20.29
2023-04-17T11:09:00.442Z,21.03
2023-04-17T11:11:42.947Z,21.69
2023-04-17T11:14:14.472Z,24.36
2023-04-17T11:16:43.015Z,22.37
2023-04-17T11:19:18.529Z,21.23
2023-04-17T11:21:45.853Z,19.77
2023-04-17T11:24:12.368Z,19.71
2023-04-17T11:26:46.668Z,18.93
2023-04-17T11:29:17.754Z,18.34
2023-04-17T11:31:45.917Z,18.48
2023-04-17T11:34:16.940Z,16.35
2023-04-17T11:36:50.435Z,15.07
2023-04-17T11:39:17.829Z,14.20
2023-04-17T11:41:44.898Z,15.02
2023-04-17T11:44:15.806Z,16.52
2023-04-17T11:46:42.530Z,16.27
2023-04-17T11:49:09.937Z,16.10
2023-04-17T11:51:36.629Z,16.71
2023-04-17T11:54:03.158Z,16.29
2023-04-17T11:56:30.079Z,15.03
2023-04-17T11:58:58.382Z,16.61
2023-04-17T12:01:27.177Z,18.63
2023-04-17T12:03:57.778Z,17.19
2023-04-17T12:06:35.896Z,19.10
2023-04-17T12:09:02.955Z,20.62
2023-04-17T12:11:31.217Z,19.62
2023-04-17T12:13:57.751Z,19.56
2023-04-17T12:16:25.712Z,21.27
2023-04-17T12:18:52.977Z,22.26
2023-04-17T12:21:23.888Z,22.30
2023-04-17T12:23:51.117Z,23.79
2023-04-17T12:26:17.637Z,24.53
2023-04-17T12:28:44.880Z,24.47
2023-04-17T12:31:11.591Z,22.99
2023-04-17T12:33:38.151Z,24.37
2023-04-17T12:36:05.405Z,25.08
2023-04-17T12:38:32.125Z,24.78
2023-04-17T12:40:58.720Z,24.65
2023-04-17T12:43:25.372Z,24.66
2023-04-17T12:45:54.900Z,24.92
2023-04-17T12:48:21.556Z,24.49
2023-04-17T12:50:48.038Z,26.02
2023-04-17T12:53:15.290Z,25.85
2023-04-17T12:55:43.606Z,26.02
2023-04-17T12:58:12.410Z,26.60
2023-04-17T13:00:40.689Z,25.97
2023-04-17T13:03:07.507Z,26.23
2023-04-17T13:05:34.362Z,27.56
2023-04-17T13:08:09.671Z,27.41
2023-04-17T13:10:36.271Z,27.72
2023-04-17T13:13:04.614Z,28.38
2023-04-17T13:15:31.869Z,28.23
2023-04-17T13:17:58.427Z,27.06
2023-04-17T13:20:24.974Z,27.21
2023-04-17T13:22:51.421Z,27.05
2023-04-17T13:25:18.122Z,27.47
2023-04-17T13:27:44.764Z,27.97
2023-04-17T13:30:11.727Z,28.20
2023-04-17T13:32:40.277Z,27.88
2023-04-17T13:35:09.596Z,28.88
2023-04-17T13:37:36.155Z,29.19
2023-04-17T13:40:05.607Z,28.44
2023-04-17T13:42:32.360Z,28.35
2023-04-17T13:44:58.845Z,28.23
2023-04-17T13:47:25.393Z,28.04
2023-04-17T13:49:51.902Z,27.06
2023-04-17T13:52:18.443Z,27.51
2023-04-17T13:54:45.149Z,27.23
2023-04-17T13:57:14.457Z,26.15
2023-04-17T13:59:40.931Z,26.05
2023-04-17T14:02:07.717Z,26.97
2023-04-17T14:04:34.374Z,27.81
2023-04-17T14:07:01.172Z,27.85
2023-04-17T14:09:27.738Z,27.72
2023-04-17T14:11:54.225Z,27.50
2023-04-17T14:14:20.971Z,27.16
2023-04-17T14:16:49.599Z,26.59
2023-04-17T14:19:17.238Z,25.55
2023-04-17T14:21:44.041Z,25.41
2023-04-17T14:24:10.561Z,25.69
2023-04-17T14:26:38.184Z,25.93
2023-04-17T14:29:04.734Z,25.64
2023-04-17T14:31:31.823Z,26.45
2023-04-17T14:33:58.384Z,25.63
2023-04-17T14:36:24.984Z,26.20
2023-04-17T14:38:53.557Z,27.42
2023-04-17T14:41:20.408Z,27.42
2023-04-17T14:43:47.083Z,28.50
2023-04-17T14:46:13.623Z,27.82
2023-04-17T14:48:54.221Z,27.54
2023-04-17T14:51:27.097Z,26.34
2023-04-17T14:53:54.066Z,25.56
2023-04-17T14:56:21.637Z,26.53
2023-04-17T14:58:48.649Z,26.85
2023-04-17T15:01:15.307Z,27.44
2023-04-17T15:03:44.423Z,27.42
2023-04-17T15:06:12.936Z,28.59
2023-04-17T15:08:40.348Z,28.98
2023-04-17T15:11:07.051Z,28.24
2023-04-17T15:13:34.422Z,28.23
2023-04-17T15:16:01.149Z,28.45
2023-04-17T15:18:27.672Z,28.32
2023-04-17T15:20:54.554Z,27.91
2023-04-17T15:23:22.116Z,27.84
2023-04-17T15:25:48.861Z,28.16
2023-04-17T15:28:15.897Z,27.04
2023-04-17T15:30:42.655Z,28.41
2023-04-17T15:33:10.406Z,28.89
2023-04-17T15:35:37.399Z,29.79
2023-04-17T15:38:06.069Z,29.65
2023-04-17T15:40:32.844Z,30.05
2023-04-17T15:42:59.910Z,30.34
2023-04-17T15:45:26.944Z,30.28
2023-04-17T15:47:53.634Z,29.84
2023-04-17T15:50:21.299Z,30.28
2023-04-17T15:52:48.152Z,30.58
2023-04-17T15:55:15.270Z,30.29
2023-04-17T15:57:43.087Z,29.78
2023-04-17T16:00:10.662Z,29.12
2023-04-17T16:02:37.402Z,29.02
2023-04-17T16:05:04.423Z,28.00
2023-04-17T16:07:31.662Z,26.67
2023-04-17T16:09:58.493Z,27.93
2023-04-17T16:12:24.997Z,28.72
2023-04-17T16:14:51.507Z,28.27
2023-04-17T16:17:18.253Z,28.36
2023-04-17T16:19:44.759Z,28.17
2023-04-17T16:22:11.268Z,28.77
2023-04-17T16:24:37.755Z,28.60
2023-04-17T16:27:06.222Z,28.66
2023-04-17T16:29:32.754Z,29.59
2023-04-17T16:31:59.565Z,29.22
2023-04-17T16:34:26.244Z,29.50
2023-04-17T16:36:52.716Z,30.01
2023-04-17T16:39:19.197Z,29.74
2023-04-17T16:41:45.683Z,30.31
2023-04-17T16:44:12.716Z,30.46
2023-04-17T16:47:05.121Z,31.09
2023-04-17T16:49:25.753Z,31.03
2023-04-17T16:51:52.910Z,31.65
2023-04-17T16:54:21.500Z,31.41
2023-04-17T16:56:48.848Z,32.59
2023-04-17T16:59:15.809Z,32.54
2023-04-17T17:01:42.883Z,32.53
2023-04-17T17:04:09.461Z,32.81
2023-04-17T17:06:36.085Z,32.75
2023-04-17T17:09:02.982Z,33.40
2023-04-17T17:11:29.635Z,32.47
2023-04-17T17:13:57.351Z,32.42
2023-04-17T17:16:23.865Z,32.68
2023-04-17T17:18:50.382Z,32.40
2023-04-17T17:21:16.907Z,32.16
2023-04-17T17:23:43.476Z,33.00
2023-04-17T17:26:10.019Z,32.77
2023-04-17T17:28:36.849Z,32.33
2023-04-17T17:31:05.347Z,31.53
2023-04-17T17:33:32.151Z,31.88
2023-04-17T17:35:59.528Z,32.05
2023-04-17T17:38:30.818Z,32.16
2023-04-17T17:40:57.366Z,32.00
2023-04-17T17:43:24.633Z,32.53
2023-04-17T17:45:52.828Z,32.23
2023-04-17T17:48:20.498Z,32.40
2023-04-17T17:50:47.409Z,32.07
2023-04-17T17:53:14.056Z,32.16
2023-04-17T17:55:41.992Z,32.23
2023-04-17T17:58:09.125Z,32.51
2023-04-17T18:00:37.359Z,32.79
2023-04-17T18:03:04.795Z,33.13
2023-04-17T18:05:31.453Z,32.86
2023-04-17T18:07:58.222Z,33.28
2023-04-17T18:10:24.674Z,33.50
2023-04-17T18:12:51.118Z,33.79
2023-04-17T18:15:17.835Z,33.63
2023-04-17T18:17:44.395Z,33.95
2023-04-17T18:20:11.287Z,33.83
2023-04-17T18:22:38.391Z,34.13
2023-04-17T18:25:06.864Z,34.25
2023-04-17T18:27:36.261Z,34.60
2023-04-17T18:30:07.691Z,34.82
2023-04-17T18:32:34.960Z,34.73
2023-04-17T18:35:01.994Z,34.54
2023-04-17T18:37:28.795Z,35.16
2023-04-17T18:39:55.482Z,35.20
2023-04-17T18:42:22.454Z,35.53
2023-04-17T18:44:49.730Z,35.14
2023-04-17T18:47:16.293Z,34.94
2023-04-17T18:49:42.895Z,35.19
2023-04-17T18:52:09.437Z,35.48
2023-04-17T18:54:35.913Z,36.00
2023-04-17T18:57:02.441Z,36.00
2023-04-17T18:59:29.260Z,36.04
2023-04-17T19:01:55.748Z,36.47
2023-04-17T19:04:22.308Z,36.45
2023-04-17T19:06:48.791Z,36.67
2023-04-17T19:09:15.453Z,36.54
2023-04-17T19:11:42.362Z,36.93
2023-04-17T19:14:08.858Z,37.02
2023-04-17T19:16:35.839Z,36.83
2023-04-17T19:19:02.355Z,37.08
2023-04-17T19:21:31.112Z,37.12
2023-04-17T19:23:57.564Z,36.85
2023-04-17T19:26:24.284Z,36.90
2023-04-17T19:28:50.816Z,38.25
2023-04-17T19:31:17.343Z,37.49
2023-04-17T19:33:43.824Z,37.82
2023-04-17T19:36:10.331Z,37.94
2023-04-17T19:38:36.811Z,38.47
2023-04-17T19:41:15.118Z,38.65
2023-04-17T19:43:42.499Z,38.35
2023-04-17T19:46:09.324Z,38.72
2023-04-17T19:48:36.389Z,39.12
2023-04-17T19:51:05.436Z,38.59
2023-04-17T19:53:33.957Z,39.36
2023-04-17T19:56:00.786Z,39.01
2023-04-17T19:58:27.308Z,38.74
2023-04-17T20:00:54.167Z,39.00
2023-04-17T20:03:21.057Z,39.13
2023-04-17T20:05:48.740Z,39.02
2023-04-17T20:08:15.568Z,38.52
2023-04-17T20:10:42.089Z,38.34
2023-04-17T20:13:10.962Z,38.62
2023-04-17T20:15:38.016Z,37.98
2023-04-17T20:18:10.163Z,38.17
2023-04-17T20:20:37.423Z,38.03
2023-04-17T20:23:04.218Z,38.26
2023-04-17T20:25:30.951Z,38.21
2023-04-17T20:27:57.616Z,38.02
2023-04-17T20:30:24.437Z,37.76
2023-04-17T20:32:51.286Z,37.96
2023-04-17T20:35:23.713Z,38.24
2023-04-17T20:37:51.645Z,38.39
2023-04-17T20:40:19.122Z,38.11
2023-04-17T20:42:46.633Z,38.64
2023-04-17T20:45:13.439Z,38.27
2023-04-17T20:47:52.843Z,37.97
2023-04-17T20:50:22.964Z,38.41
2023-04-17T20:52:49.599Z,38.30
2023-04-17T20:55:18.228Z,38.37
2023-04-17T20:57:45.046Z,37.98
2023-04-17T21:00:12.210Z,38.13
2023-04-17T21:02:39.220Z,37.67
2023-04-17T21:05:06.669Z,37.60
2023-04-17T21:07:33.160Z,37.65
2023-04-17T21:09:59.780Z,37.52
2023-04-17T21:12:26.332Z,37.39
2023-04-17T21:14:52.906Z,37.59
2023-04-17T21:17:19.579Z,37.16
2023-04-17T21:19:46.165Z,37.00
2023-04-17T21:22:13.057Z,37.27
2023-04-17T21:24:39.717Z,36.99
2023-04-17T21:27:06.194Z,37.65
2023-04-17T21:29:32.760Z,37.15
2023-04-17T21:31:59.700Z,36.84
2023-04-17T21:34:26.424Z,37.04
2023-04-17T21:36:54.020Z,36.44
2023-04-17T21:39:21.206Z,36.64
2023-04-17T21:41:47.800Z,36.47
2023-04-17T21:44:14.962Z,36.07
2023-04-17T21:46:44.312Z,36.09
2023-04-17T21:49:10.885Z,35.57
2023-04-17T21:51:37.322Z,35.32
2023-04-17T21:54:04.265Z,35.14
2023-04-17T21:56:31.564Z,35.16
2023-04-17T21:58:58.200Z,35.32
2023-04-17T22:01:24.875Z,35.52
2023-04-17T22:03:51.438Z,35.71
2023-04-17T22:06:17.990Z,35.63
2023-04-17T22:08:44.618Z,35.76
2023-04-17T22:11:11.136Z,35.96
2023-04-17T22:13:37.608Z,36.16
2023-04-17T22:16:04.545Z,36.21
2023-04-17T22:18:31.088Z,36.69
2023-04-17T22:20:57.593Z,37.19
2023-04-17T22:23:24.111Z,36.95
2023-04-17T22:25:50.690Z,36.61
2023-04-17T22:28:17.175Z,36.95
2023-04-17T22:30:43.704Z,36.82
2023-04-17T22:33:10.189Z,37.21
2023-04-17T22:35:36.776Z,37.51
2023-04-17T22:38:03.274Z,38.17
2023-04-17T22:40:30.211Z,38.21
2023-04-17T22:42:56.754Z,38.76
2023-04-17T22:45:23.280Z,38.92
2023-04-17T22:47:49.853Z,38.44
2023-04-17T22:50:17.397Z,38.31
2023-04-17T22:52:43.889Z,38.65
2023-04-17T22:55:10.975Z,39.58
2023-04-17T22:57:37.989Z,39.69
2023-04-17T23:00:06.316Z,42.74
2023-04-17T23:02:32.893Z,42.92
2023-04-17T23:04:59.434Z,43.97
2023-04-17T23:07:26.185Z,44.99
2023-04-17T23:09:52.737Z,44.99
2023-04-17T23:12:20.008Z,46.63
2023-04-17T23:14:48.366Z,47.13
2023-04-17T23:17:14.894Z,48.35
2023-04-17T23:19:41.602Z,49.09
2023-04-17T23:22:09.202Z,49.78
2023-04-17T23:24:36.072Z,51.54
2023-04-17T23:27:02.602Z,51.83
2023-04-17T23:29:29.179Z,51.45
2023-04-17T23:31:55.747Z,51.46
2023-04-17T23:34:22.450Z,51.33
2023-04-17T23:36:48.993Z,51.62
2023-04-17T23:39:15.760Z,51.98
2023-04-17T23:41:42.770Z,51.60
2023-04-17T23:44:09.822Z,50.89
2023-04-17T23:46:36.630Z,51.14
2023-04-17T23:49:03.782Z,50.02
2023-04-17T23:51:31.517Z,50.60
2023-04-17T23:53:59.817Z,50.61
2023-04-17T23:56:29.445Z,50.77
2023-04-17T23:58:56.648Z,50.60
